Terminal Aerodrome Forecast
Issued by NWS Atlanta, GA

Home | Current Version | Previous Version | Text Only | Print | Product List | Glossary On
Versions: 1 2 3 4 5 6 7 8 9 10 11 12 13 14 15 16 17 18 19 20 21 22 23 24 25 26 27 28 29 30 31 32 33 34 35 36 37 38
000
FTUS42 KFFC 011341 AAA
TAFATL
TAF AMD
KATL 011341Z 0114/0218 16008KT P6SM SCT030 BKN150
     FM011500 17010G20KT P6SM VCSH BKN025
     FM012100 17008KT 5SM -RA BR OVC015
     FM020000 16007KT 2SM -RA BR OVC007
     FM020500 23012KT 2SM SHRA BR OVC004
     FM021200 30015G25KT P6SM OVC015=

USA.gov is the U.S. government's official web portal to all federal, state and local government web resources and services.